Time;durP1;ratioP1;P1;durP2;ratioP2;P2;SDS_P1;SDS_P2;PMS_P1;PMS_P2;Temp;Humidity;BMP_temperature;BMP_pressure;BME280_temperature;BME280_humidity;BME280_pressure;Samples;Min_cycle;Max_cycle;Signal;HPM_P1;HPM_P2
2021/12/09 00:01:01;;;;;;;8.55;5.28;;;2.30;99.90;;;;;;5004033;28;20046;-80
2021/12/09 00:03:28;;;;;;;9.75;4.68;;;2.60;99.90;;;;;;5000594;28;20100;-78
2021/12/09 00:05:56;;;;;;;8.65;4.55;;;2.40;99.90;;;;;;4983749;28;20062;-83
2021/12/09 00:08:25;;;;;;;11.85;4.95;;;2.30;99.90;;;;;;4999791;28;20054;-78
2021/12/09 00:10:50;;;;;;;8.70;4.72;;;2.30;99.90;;;;;;5002944;28;20030;-82
2021/12/09 00:13:16;;;;;;;12.75;5.20;;;2.30;99.90;;;;;;5001629;28;20053;-82
2021/12/09 00:15:42;;;;;;;18.58;5.60;;;2.30;99.90;;;;;;5000311;28;20038;-78
2021/12/09 00:18:07;;;;;;;12.05;4.80;;;2.30;99.90;;;;;;4999733;28;20026;-83
2021/12/09 00:20:33;;;;;;;11.35;5.32;;;2.30;99.90;;;;;;5002514;28;20120;-77
2021/12/09 00:22:58;;;;;;;12.00;4.65;;;2.30;99.90;;;;;;5003323;28;20064;-77
2021/12/09 00:25:24;;;;;;;13.73;5.53;;;2.30;99.90;;;;;;5001952;28;20050;-82
2021/12/09 00:27:51;;;;;;;10.63;4.85;;;2.20;99.90;;;;;;4999289;28;20052;-77
2021/12/09 00:30:18;;;;;;;11.30;5.10;;;2.20;99.90;;;;;;4982427;28;20450;-79
2021/12/09 00:32:43;;;;;;;11.60;4.85;;;2.30;99.90;;;;;;5004087;28;20045;-82
2021/12/09 00:35:14;;;;;;;8.95;5.25;;;2.50;99.90;;;;;;5003294;28;20045;-77
2021/12/09 00:37:51;;;;;;;13.27;5.75;;;2.20;99.90;;;;;;4999083;28;20571;-83
2021/12/09 00:40:17;;;;;;;12.07;6.18;;;2.20;99.90;;;;;;4999365;28;20050;-81
2021/12/09 00:42:42;;;;;;;15.13;6.50;;;2.70;99.90;;;;;;5001886;28;20720;-80
2021/12/09 00:45:08;;;;;;;10.38;5.30;;;2.40;99.90;;;;;;5003462;28;20034;-81
2021/12/09 00:47:34;;;;;;;11.15;5.65;;;2.20;99.90;;;;;;5000770;28;20441;-83
2021/12/09 00:49:59;;;;;;;16.98;6.47;;;2.20;99.90;;;;;;4998311;28;20125;-82
2021/12/09 00:52:27;;;;;;;14.73;5.70;;;2.30;99.90;;;;;;5000950;28;20042;-80
2021/12/09 00:54:54;;;;;;;12.50;5.72;;;2.20;99.90;;;;;;5003983;28;20038;-80
2021/12/09 00:57:20;;;;;;;9.25;5.68;;;2.20;99.90;;;;;;4999831;28;20053;-77
2021/12/09 00:59:46;;;;;;;14.20;5.80;;;2.20;99.90;;;;;;4999796;28;20081;-79
2021/12/09 01:02:12;;;;;;;11.15;6.13;;;2.20;99.90;;;;;;4999526;28;20034;-81
2021/12/09 01:04:38;;;;;;;14.27;5.72;;;4.10;99.90;;;;;;5002435;28;20046;-83
2021/12/09 01:07:05;;;;;;;8.75;5.63;;;2.20;99.90;;;;;;5000982;28;20049;-81
2021/12/09 01:09:30;;;;;;;9.60;5.82;;;2.20;99.90;;;;;;4983473;28;20054;-81
2021/12/09 01:11:56;;;;;;;13.80;6.32;;;2.20;99.90;;;;;;4999364;28;20026;-79
2021/12/09 01:14:22;;;;;;;9.68;6.40;;;2.10;99.90;;;;;;5000266;28;20049;-79
2021/12/09 01:16:48;;;;;;;9.40;5.75;;;2.20;99.90;;;;;;5001695;28;20104;-79
2021/12/09 01:19:13;;;;;;;16.63;7.03;;;2.10;99.90;;;;;;5001828;28;20045;-81
2021/12/09 01:21:39;;;;;;;7.75;6.35;;;2.20;99.90;;;;;;4998245;28;20073;-79
2021/12/09 01:24:04;;;;;;;13.18;6.05;;;2.10;99.90;;;;;;4997866;28;20034;-79
2021/12/09 01:26:30;;;;;;;19.83;7.07;;;2.10;99.90;;;;;;5000990;28;20125;-82
2021/12/09 01:29:05;;;;;;;9.63;5.97;;;2.10;99.90;;;;;;5003108;28;20080;-79
2021/12/09 01:31:35;;;;;;;9.38;5.72;;;2.50;99.90;;;;;;5001030;28;20050;-80
2021/12/09 01:34:03;;;;;;;11.27;6.32;;;2.10;99.90;;;;;;4981356;28;20034;-79
2021/12/09 01:36:30;;;;;;;14.48;6.07;;;2.00;99.90;;;;;;5000474;28;20494;-83
2021/12/09 01:38:56;;;;;;;14.82;6.72;;;2.00;99.90;;;;;;5002155;28;20041;-81
2021/12/09 01:41:22;;;;;;;10.48;6.15;;;2.00;99.90;;;;;;5001617;28;20060;-80
2021/12/09 01:43:48;;;;;;;11.15;6.18;;;2.00;99.90;;;;;;4999474;28;20540;-81
2021/12/09 01:46:16;;;;;;;12.50;6.47;;;2.00;99.90;;;;;;4996823;28;20096;-82
2021/12/09 01:48:44;;;;;;;7.90;6.30;;;2.00;99.90;;;;;;5002331;28;20049;-83
2021/12/09 01:51:10;;;;;;;17.80;7.72;;;1.90;99.90;;;;;;5001922;28;20117;-79
2021/12/09 01:53:36;;;;;;;13.90;6.55;;;2.00;99.90;;;;;;4999562;28;20124;-81
2021/12/09 01:56:06;;;;;;;16.90;6.72;;;2.00;99.90;;;;;;4998996;28;20050;-78
2021/12/09 01:58:31;;;;;;;15.95;7.55;;;1.90;99.90;;;;;;4999336;28;20070;-80
2021/12/09 02:00:57;;;;;;;12.10;6.90;;;2.00;99.90;;;;;;4984495;28;20133;-82
2021/12/09 02:03:24;;;;;;;14.80;7.07;;;1.90;99.90;;;;;;4999959;28;20048;-77
2021/12/09 02:05:50;;;;;;;12.27;6.97;;;1.90;99.90;;;;;;4999162;28;20046;-82
2021/12/09 02:08:17;;;;;;;14.93;7.13;;;1.90;99.90;;;;;;4997789;28;20045;-83
2021/12/09 02:10:44;;;;;;;12.35;6.88;;;2.50;99.90;;;;;;5002791;28;20042;-81
2021/12/09 02:13:10;;;;;;;11.98;7.43;;;1.90;99.90;;;;;;5002074;28;20048;-83
2021/12/09 02:15:36;;;;;;;12.90;7.38;;;1.90;99.90;;;;;;5000362;28;20406;-82
2021/12/09 02:18:07;;;;;;;14.27;7.78;;;1.90;99.90;;;;;;5002474;28;20050;-79
2021/12/09 02:20:34;;;;;;;13.30;7.28;;;1.90;99.90;;;;;;5004693;28;20054;-80
2021/12/09 02:23:06;;;;;;;18.92;7.93;;;1.90;99.90;;;;;;5004412;28;20576;-79
2021/12/09 02:25:32;;;;;;;13.57;7.57;;;1.80;99.90;;;;;;5003587;28;20394;-79
2021/12/09 02:27:57;;;;;;;12.88;7.63;;;1.80;99.90;;;;;;5002050;28;20034;-78
2021/12/09 02:30:23;;;;;;;10.18;7.38;;;1.90;99.90;;;;;;5002640;28;20547;-77
2021/12/09 02:32:49;;;;;;;12.25;7.38;;;1.80;99.90;;;;;;5006272;28;20046;-80
2021/12/09 02:35:15;;;;;;;14.15;8.50;;;2.00;99.90;;;;;;5005047;28;20056;-77
2021/12/09 02:37:41;;;;;;;9.35;7.53;;;2.60;99.90;;;;;;5002586;28;20043;-79
2021/12/09 02:40:08;;;;;;;10.27;7.10;;;1.80;99.90;;;;;;5002315;28;20125;-80
2021/12/09 02:42:34;;;;;;;11.73;7.47;;;1.80;99.90;;;;;;5003860;28;20448;-78
2021/12/09 02:45:01;;;;;;;13.88;8.25;;;2.00;99.90;;;;;;5004943;28;20149;-76
2021/12/09 02:47:26;;;;;;;18.50;8.50;;;1.70;99.90;;;;;;5003309;28;20045;-81
2021/12/09 02:49:52;;;;;;;14.18;8.57;;;2.10;99.90;;;;;;5001773;28;20054;-79
2021/12/09 02:52:19;;;;;;;13.13;7.38;;;1.70;99.90;;;;;;5000830;28;20478;-81
2021/12/09 02:54:45;;;;;;;13.18;7.28;;;1.80;99.90;;;;;;5002949;28;20130;-82
2021/12/09 02:57:11;;;;;;;16.45;7.95;;;1.70;99.90;;;;;;5001127;28;20117;-82
2021/12/09 02:59:37;;;;;;;19.30;8.75;;;1.80;99.90;;;;;;5004514;28;20050;-78
2021/12/09 03:02:06;;;;;;;12.90;7.63;;;1.80;99.90;;;;;;5005689;28;20054;-78
2021/12/09 03:04:47;;;;;;;18.83;9.10;;;2.30;99.90;;;;;;5003745;28;20096;-82
2021/12/09 03:07:18;;;;;;;15.55;7.85;;;1.70;99.90;;;;;;5001792;28;20047;-79
2021/12/09 03:09:50;;;;;;;12.48;7.80;;;2.20;99.90;;;;;;5005125;28;20046;-78
2021/12/09 03:12:22;;;;;;;10.98;7.50;;;1.70;99.90;;;;;;5003452;28;20072;-82
2021/12/09 03:14:48;;;;;;;13.57;6.95;;;1.70;99.90;;;;;;5001995;28;20042;-81
2021/12/09 03:17:14;;;;;;;12.77;8.10;;;1.70;99.90;;;;;;4999204;28;20503;-82
2021/12/09 03:19:40;;;;;;;16.60;7.97;;;1.70;99.90;;;;;;5004368;28;20097;-83
2021/12/09 03:22:07;;;;;;;14.27;8.38;;;1.70;99.90;;;;;;5004802;28;20093;-80
2021/12/09 03:24:32;;;;;;;14.60;8.30;;;1.70;99.90;;;;;;5002934;28;20085;-83
2021/12/09 03:26:59;;;;;;;13.85;8.13;;;1.70;99.90;;;;;;5001056;28;20062;-81
2021/12/09 03:29:27;;;;;;;11.65;7.80;;;1.70;99.90;;;;;;5000182;28;20105;-81
2021/12/09 03:31:56;;;;;;;14.10;6.90;;;1.70;99.90;;;;;;5003276;28;20076;-81
2021/12/09 03:34:24;;;;;;;17.10;8.18;;;1.70;99.90;;;;;;5003183;28;20469;-79
2021/12/09 03:36:51;;;;;;;17.33;8.45;;;1.70;99.90;;;;;;5001582;28;20042;-80
2021/12/09 03:39:20;;;;;;;13.70;8.18;;;1.70;99.90;;;;;;4999118;28;20487;-81
2021/12/09 03:41:49;;;;;;;11.90;8.10;;;1.60;99.90;;;;;;5005454;28;20046;-83
2021/12/09 03:44:15;;;;;;;17.58;7.95;;;1.60;99.90;;;;;;5004788;28;20045;-81
2021/12/09 03:46:41;;;;;;;16.45;8.63;;;1.60;99.90;;;;;;5001030;28;20579;-79
2021/12/09 03:49:07;;;;;;;16.23;8.60;;;1.60;99.90;;;;;;4999381;28;20125;-79
2021/12/09 03:51:35;;;;;;;13.82;8.00;;;2.10;99.90;;;;;;5001543;28;20137;-83
2021/12/09 03:54:05;;;;;;;13.60;8.93;;;1.60;99.90;;;;;;5003140;28;20184;-81
2021/12/09 03:56:32;;;;;;;13.70;7.78;;;1.60;99.90;;;;;;5003137;28;20391;-83
2021/12/09 03:58:58;;;;;;;17.95;8.63;;;1.60;99.90;;;;;;5001271;28;20046;-82
2021/12/09 04:01:24;;;;;;;11.15;8.15;;;1.50;99.90;;;;;;5000190;28;20050;-83
2021/12/09 04:03:49;;;;;;;17.13;8.40;;;1.60;99.90;;;;;;5003197;28;20033;-82
2021/12/09 04:06:16;;;;;;;14.02;7.75;;;1.50;99.90;;;;;;5002511;28;20128;-82
2021/12/09 04:08:42;;;;;;;15.45;8.65;;;1.50;99.90;;;;;;4999745;28;20083;-81
2021/12/09 04:11:10;;;;;;;13.70;8.90;;;1.50;99.90;;;;;;5006684;28;20084;-81
2021/12/09 04:13:37;;;;;;;19.77;8.82;;;1.50;99.90;;;;;;5001789;28;20125;-82
2021/12/09 04:16:04;;;;;;;18.77;8.25;;;1.70;99.90;;;;;;5000660;28;20042;-81
2021/12/09 04:18:30;;;;;;;19.30;8.50;;;1.50;99.90;;;;;;5001732;28;20054;-81
2021/12/09 04:20:56;;;;;;;16.92;7.88;;;1.50;99.90;;;;;;5002325;28;20033;-78
2021/12/09 04:23:23;;;;;;;17.73;8.63;;;1.50;99.90;;;;;;5003477;28;20525;-79
2021/12/09 04:25:48;;;;;;;18.00;7.50;;;1.70;99.90;;;;;;4999630;28;20129;-81
2021/12/09 04:28:14;;;;;;;15.38;8.23;;;1.50;99.90;;;;;;5005014;28;20165;-80
2021/12/09 04:30:40;;;;;;;9.75;7.10;;;1.50;99.90;;;;;;5001576;28;20053;-79
2021/12/09 04:33:06;;;;;;;17.08;7.97;;;1.50;99.90;;;;;;5000125;28;20046;-80
2021/12/09 04:35:32;;;;;;;15.00;7.40;;;1.90;99.90;;;;;;5000910;28;20518;-82
2021/12/09 04:37:57;;;;;;;16.85;8.45;;;1.50;99.90;;;;;;5001426;28;20054;-77
2021/12/09 04:40:23;;;;;;;12.43;7.80;;;1.50;99.90;;;;;;5003203;28;20046;-78
2021/12/09 04:42:48;;;;;;;15.75;7.90;;;1.50;99.90;;;;;;5006745;28;20097;-80
2021/12/09 04:45:15;;;;;;;24.27;8.63;;;1.40;99.90;;;;;;4998763;28;20046;-78
2021/12/09 04:47:41;;;;;;;16.00;8.65;;;1.50;99.90;;;;;;5001976;28;20109;-80
2021/12/09 04:50:08;;;;;;;11.32;7.53;;;1.40;99.90;;;;;;5004829;28;20478;-82
2021/12/09 04:52:34;;;;;;;14.77;8.43;;;1.40;99.90;;;;;;5001510;28;20034;-81
2021/12/09 04:55:00;;;;;;;15.45;7.78;;;1.40;99.90;;;;;;5003886;28;20091;-80
2021/12/09 04:57:25;;;;;;;16.02;8.05;;;1.40;99.90;;;;;;5000959;28;20046;-81
2021/12/09 04:59:52;;;;;;;15.05;7.18;;;1.40;99.90;;;;;;5002095;28;20062;-84
2021/12/09 05:02:29;;;;;;;16.13;8.77;;;1.40;99.90;;;;;;5002076;28;20037;-81
2021/12/09 05:04:55;;;;;;;16.83;8.05;;;1.50;99.90;;;;;;4999610;28;20045;-82
2021/12/09 05:07:21;;;;;;;18.70;8.18;;;1.50;99.90;;;;;;4999332;28;20485;-82
2021/12/09 05:09:50;;;;;;;16.38;8.65;;;2.00;99.90;;;;;;5002076;28;20492;-78
2021/12/09 05:12:17;;;;;;;23.52;14.00;;;1.40;99.90;;;;;;5001362;28;20053;-79
2021/12/09 05:14:47;;;;;;;19.30;9.90;;;1.30;99.90;;;;;;5000811;28;20054;-76
2021/12/09 05:17:13;;;;;;;12.68;7.28;;;1.40;99.90;;;;;;4980492;28;20041;-80
2021/12/09 05:19:39;;;;;;;15.93;8.55;;;1.40;99.90;;;;;;5000296;28;20410;-79
2021/12/09 05:22:05;;;;;;;18.63;7.80;;;1.40;99.90;;;;;;5001098;28;20041;-80
2021/12/09 05:24:34;;;;;;;15.05;8.73;;;1.40;99.90;;;;;;5001669;28;20050;-77
2021/12/09 05:27:01;;;;;;;13.23;8.35;;;1.40;99.90;;;;;;4999352;28;20081;-77
2021/12/09 05:29:32;;;;;;;16.40;8.27;;;1.10;99.90;;;;;;4999010;28;20065;-81
2021/12/09 05:32:08;;;;;;;14.68;7.97;;;1.40;99.90;;;;;;5001233;28;20313;-80
2021/12/09 05:34:37;;;;;;;15.07;7.78;;;3.10;99.90;;;;;;5000929;28;20066;-79
2021/12/09 05:37:04;;;;;;;14.13;7.13;;;1.40;99.90;;;;;;4999417;28;20086;-81
2021/12/09 05:39:30;;;;;;;15.15;7.15;;;1.40;99.90;;;;;;4999119;28;20061;-77
2021/12/09 05:41:56;;;;;;;16.08;8.00;;;1.30;99.90;;;;;;5001718;28;20041;-80
2021/12/09 05:44:22;;;;;;;17.67;8.55;;;1.30;99.90;;;;;;5002083;28;20045;-83
2021/12/09 05:46:48;;;;;;;16.50;7.60;;;1.40;99.90;;;;;;4999274;28;20165;-78
2021/12/09 05:49:14;;;;;;;13.45;7.97;;;1.20;99.90;;;;;;4997405;28;20140;-80
2021/12/09 05:51:41;;;;;;;13.63;8.38;;;1.30;99.90;;;;;;5001044;28;20046;-81
2021/12/09 05:54:07;;;;;;;14.70;7.72;;;1.30;99.90;;;;;;5001628;28;20048;-81
2021/12/09 05:56:33;;;;;;;17.85;8.57;;;1.30;99.90;;;;;;5000659;28;20128;-77
2021/12/09 05:59:00;;;;;;;17.17;8.10;;;1.30;99.90;;;;;;4998654;28;20038;-82
2021/12/09 06:01:25;;;;;;;10.40;7.45;;;1.30;99.90;;;;;;4998923;28;20046;-79
2021/12/09 06:03:51;;;;;;;19.38;8.70;;;1.30;99.90;;;;;;5002427;28;20041;-78
2021/12/09 06:06:18;;;;;;;14.82;8.52;;;1.20;99.90;;;;;;5000474;28;20446;-81
2021/12/09 06:08:45;;;;;;;11.82;8.35;;;1.00;99.90;;;;;;5000287;28;20050;-79
2021/12/09 06:11:11;;;;;;;14.38;7.80;;;1.20;99.90;;;;;;4998968;28;20121;-78
2021/12/09 06:13:38;;;;;;;15.85;8.30;;;1.30;99.90;;;;;;4998619;28;20133;-83
2021/12/09 06:16:06;;;;;;;13.95;7.90;;;1.90;99.90;;;;;;5002058;28;20046;-78
2021/12/09 06:18:32;;;;;;;13.48;8.13;;;1.30;99.90;;;;;;5001859;28;20085;-80
2021/12/09 06:20:57;;;;;;;14.38;7.90;;;1.30;99.90;;;;;;4998296;28;20516;-81
2021/12/09 06:23:23;;;;;;;14.73;7.78;;;1.30;99.90;;;;;;4998206;28;20156;-78
2021/12/09 06:25:52;;;;;;;16.52;8.35;;;1.30;99.90;;;;;;5001360;28;20050;-81
2021/12/09 06:28:18;;;;;;;13.63;7.45;;;1.70;99.90;;;;;;4999716;28;20033;-83
2021/12/09 06:30:46;;;;;;;15.05;8.73;;;1.20;99.90;;;;;;5000382;28;20049;-82
2021/12/09 06:33:11;;;;;;;21.45;9.25;;;1.20;99.90;;;;;;4998455;28;20050;-82
2021/12/09 06:35:37;;;;;;;13.63;8.20;;;1.20;99.90;;;;;;4999201;28;20050;-81
2021/12/09 06:38:05;;;;;;;17.80;8.30;;;1.20;99.90;;;;;;5001769;28;20049;-77
2021/12/09 06:40:31;;;;;;;16.70;8.48;;;1.20;99.90;;;;;;5000696;28;20049;-82
2021/12/09 06:42:57;;;;;;;12.40;7.95;;;1.20;99.90;;;;;;4998093;28;20034;-82
2021/12/09 06:45:24;;;;;;;16.63;8.10;;;1.20;99.90;;;;;;4998526;28;20122;-82
2021/12/09 06:47:50;;;;;;;15.05;8.32;;;1.20;99.90;;;;;;4999696;28;20164;-80
2021/12/09 06:50:18;;;;;;;15.52;7.80;;;1.20;99.90;;;;;;5001233;28;20076;-83
2021/12/09 06:52:45;;;;;;;16.95;7.85;;;1.20;99.90;;;;;;5000210;28;20429;-82
2021/12/09 06:55:13;;;;;;;17.38;7.47;;;1.20;99.90;;;;;;4997812;28;20034;-79
2021/12/09 06:57:42;;;;;;;15.15;7.68;;;1.20;99.90;;;;;;4999395;28;20125;-77
2021/12/09 07:00:14;;;;;;;24.00;9.65;;;1.20;99.90;;;;;;5001523;28;20052;-78
2021/12/09 07:02:40;;;;;;;12.20;6.70;;;1.10;99.90;;;;;;5002558;28;20046;-78
2021/12/09 07:05:07;;;;;;;15.15;7.90;;;1.10;99.90;;;;;;5000429;28;20050;-81
2021/12/09 07:07:33;;;;;;;12.93;7.82;;;1.20;99.90;;;;;;5002179;28;20050;-78
2021/12/09 07:09:59;;;;;;;17.73;8.77;;;1.10;99.90;;;;;;5004817;28;20048;-80
2021/12/09 07:12:25;;;;;;;16.70;7.47;;;1.10;99.90;;;;;;5003692;28;20128;-78
2021/12/09 07:14:51;;;;;;;20.45;8.70;;;1.10;99.90;;;;;;5003024;28;20133;-77
2021/12/09 07:17:17;;;;;;;13.23;7.60;;;1.10;99.90;;;;;;5000367;28;20122;-80
2021/12/09 07:19:43;;;;;;;13.32;8.40;;;1.10;99.90;;;;;;5002398;28;20139;-81
2021/12/09 07:22:09;;;;;;;15.55;8.60;;;1.00;99.90;;;;;;5004819;28;20061;-78
2021/12/09 07:24:35;;;;;;;17.02;9.40;;;1.00;99.90;;;;;;5004197;28;20045;-81
2021/12/09 07:27:01;;;;;;;14.50;8.13;;;1.10;99.90;;;;;;5001657;28;20461;-78
2021/12/09 07:29:27;;;;;;;16.52;8.30;;;1.00;99.90;;;;;;5001430;28;20042;-79
2021/12/09 07:31:53;;;;;;;13.30;8.32;;;1.10;99.90;;;;;;5002679;28;20128;-78
2021/12/09 07:34:19;;;;;;;17.55;8.40;;;1.10;99.90;;;;;;5003408;28;20444;-80
2021/12/09 07:36:45;;;;;;;18.30;8.00;;;1.00;99.90;;;;;;5001585;28;20053;-82
2021/12/09 07:39:10;;;;;;;138.00;66.70;;;1.00;99.90;;;;;;5000400;28;20073;-77
2021/12/09 07:41:36;;;;;;;19.13;11.13;;;1.00;99.90;;;;;;5000953;28;20520;-79
2021/12/09 07:44:02;;;;;;;13.10;8.10;;;1.10;99.90;;;;;;5004557;28;20109;-77
2021/12/09 07:46:35;;;;;;;16.05;8.73;;;1.10;99.90;;;;;;5003920;28;20053;-78
2021/12/09 07:49:01;;;;;;;15.82;8.23;;;1.00;99.90;;;;;;5001269;28;20089;-78
2021/12/09 07:51:27;;;;;;;13.75;7.95;;;1.40;99.90;;;;;;5000753;28;20042;-79
2021/12/09 07:53:52;;;;;;;16.67;8.15;;;1.00;99.90;;;;;;5002560;28;20103;-79
2021/12/09 07:56:19;;;;;;;17.70;8.23;;;1.00;99.90;;;;;;5003972;28;20041;-81
2021/12/09 07:58:44;;;;;;;18.40;8.02;;;1.00;99.90;;;;;;5000415;28;20040;-81
2021/12/09 08:01:11;;;;;;;19.35;8.35;;;1.00;99.90;;;;;;5000810;28;20070;-78
2021/12/09 08:03:37;;;;;;;16.38;7.55;;;1.00;99.90;;;;;;5001748;28;20042;-78
2021/12/09 08:06:03;;;;;;;13.35;8.65;;;1.00;99.90;;;;;;5003354;28;20406;-81
2021/12/09 08:08:29;;;;;;;13.80;7.75;;;1.00;99.90;;;;;;5004427;28;20050;-80
2021/12/09 08:10:55;;;;;;;12.82;8.23;;;1.00;99.90;;;;;;5000462;28;20046;-79
2021/12/09 08:13:22;;;;;;;20.95;8.52;;;0.90;99.90;;;;;;4999463;28;20056;-80
2021/12/09 08:15:49;;;;;;;14.52;7.95;;;1.30;99.90;;;;;;5002768;28;20129;-81
2021/12/09 08:20:46;;;;;;;19.52;8.13;;;1.00;99.90;;;;;;5002199;28;20052;-79
2021/12/09 08:23:11;;;;;;;13.07;8.30;;;0.80;99.90;;;;;;5000333;28;20034;-79
2021/12/09 08:25:37;;;;;;;20.60;8.35;;;0.90;99.90;;;;;;5000660;28;20548;-81
2021/12/09 08:28:03;;;;;;;23.08;8.00;;;1.30;99.90;;;;;;5001476;28;20096;-81
2021/12/09 08:30:29;;;;;;;19.67;8.68;;;0.90;99.90;;;;;;5003940;28;20414;-78
2021/12/09 08:32:55;;;;;;;15.52;9.52;;;0.90;99.90;;;;;;4999938;28;20038;-81
2021/12/09 08:35:21;;;;;;;129.43;77.72;;;0.90;99.90;;;;;;4999308;28;20088;-81
2021/12/09 08:37:48;;;;;;;17.13;10.10;;;0.90;99.90;;;;;;5001412;28;20057;-79
2021/12/09 08:40:16;;;;;;;14.63;8.50;;;1.00;99.90;;;;;;5003490;28;20050;-81
2021/12/09 08:42:42;;;;;;;16.90;7.97;;;0.90;99.90;;;;;;5002256;28;20056;-80
2021/12/09 08:45:11;;;;;;;19.88;8.13;;;0.90;99.90;;;;;;5000204;28;20080;-77
2021/12/09 08:47:39;;;;;;;15.48;8.55;;;1.00;99.90;;;;;;5000046;28;20050;-82
2021/12/09 08:50:08;;;;;;;20.00;8.73;;;1.00;99.90;;;;;;4999288;28;20129;-78
2021/12/09 08:52:34;;;;;;;14.25;8.48;;;1.00;99.90;;;;;;5000443;28;20038;-81
2021/12/09 08:55:00;;;;;;;14.88;8.38;;;1.80;99.90;;;;;;5002486;28;20087;-81
2021/12/09 08:57:26;;;;;;;19.73;9.32;;;1.00;99.90;;;;;;5002372;28;20037;-79
2021/12/09 08:59:52;;;;;;;12.90;7.68;;;1.00;99.90;;;;;;5001595;28;20045;-81
2021/12/09 09:02:18;;;;;;;13.82;7.63;;;1.00;99.90;;;;;;4998879;28;20117;-82
2021/12/09 09:04:43;;;;;;;16.77;8.07;;;1.10;99.90;;;;;;5000599;28;20038;-81
2021/12/09 09:07:09;;;;;;;19.40;7.60;;;1.10;99.90;;;;;;5002551;28;20034;-79
2021/12/09 09:09:36;;;;;;;13.43;7.60;;;1.10;99.90;;;;;;5001455;28;20038;-82
2021/12/09 09:12:05;;;;;;;14.07;7.25;;;1.20;99.90;;;;;;4999880;28;20093;-79
2021/12/09 09:14:31;;;;;;;20.40;8.27;;;1.20;99.90;;;;;;5000172;28;20046;-82
2021/12/09 09:16:56;;;;;;;11.70;8.07;;;1.50;99.90;;;;;;5001511;28;20050;-81
2021/12/09 09:19:22;;;;;;;18.55;7.18;;;1.20;99.90;;;;;;5002457;28;20052;-81
2021/12/09 09:21:48;;;;;;;17.52;7.85;;;1.30;99.90;;;;;;4984275;28;20048;-81
2021/12/09 09:24:14;;;;;;;15.43;7.53;;;1.30;99.90;;;;;;4996967;28;20050;-78
2021/12/09 09:26:41;;;;;;;19.35;7.53;;;1.30;99.90;;;;;;4999624;28;20054;-81
2021/12/09 09:29:08;;;;;;;8.85;6.45;;;1.30;99.90;;;;;;5002228;28;20052;-83
2021/12/09 09:31:34;;;;;;;18.38;7.18;;;1.40;99.90;;;;;;5002518;28;20060;-78
2021/12/09 09:34:02;;;;;;;13.45;6.85;;;1.40;99.90;;;;;;4982913;28;20038;-77
2021/12/09 09:36:29;;;;;;;16.63;7.28;;;1.40;99.90;;;;;;4999049;28;20049;-80
2021/12/09 09:39:06;;;;;;;12.85;7.03;;;1.50;99.90;;;;;;5000767;28;20562;-81
2021/12/09 09:41:34;;;;;;;16.67;7.05;;;1.50;99.90;;;;;;4985268;28;20401;-80
2021/12/09 09:44:12;;;;;;;18.20;7.13;;;1.50;99.90;;;;;;4998758;28;20482;-81
2021/12/09 09:46:37;;;;;;;67.82;38.78;;;1.50;99.90;;;;;;4999473;28;20053;-80
2021/12/09 09:49:06;;;;;;;49.63;23.00;;;1.60;99.90;;;;;;5000182;28;20405;-77
2021/12/09 09:51:32;;;;;;;14.38;7.32;;;1.70;99.90;;;;;;5002030;28;20375;-81
2021/12/09 09:53:59;;;;;;;15.50;7.57;;;1.70;99.90;;;;;;4999420;28;20096;-82
2021/12/09 09:56:26;;;;;;;23.80;8.50;;;1.80;99.90;;;;;;4998789;28;20129;-80
2021/12/09 09:58:58;;;;;;;12.63;6.47;;;1.80;99.90;;;;;;4998477;28;20049;-79
2021/12/09 10:01:26;;;;;;;19.38;6.32;;;1.90;99.90;;;;;;5002312;28;20042;-79
2021/12/09 10:03:58;;;;;;;15.70;6.60;;;1.80;99.90;;;;;;5001830;28;20050;-77
2021/12/09 10:06:25;;;;;;;13.98;6.90;;;1.90;99.90;;;;;;4996927;28;20061;-77
2021/12/09 10:08:50;;;;;;;14.90;6.75;;;1.90;99.90;;;;;;4999857;28;20042;-78
2021/12/09 10:11:16;;;;;;;14.55;6.93;;;1.90;99.90;;;;;;5002289;28;20402;-83
2021/12/09 10:13:43;;;;;;;13.80;6.93;;;2.00;99.90;;;;;;5000570;28;20046;-82
2021/12/09 10:16:26;;;;;;;17.33;7.65;;;2.10;99.90;;;;;;4998561;28;20629;-83
2021/12/09 10:18:56;;;;;;;12.65;7.18;;;2.10;99.90;;;;;;5000079;28;20054;-82
2021/12/09 10:21:30;;;;;;;16.08;6.75;;;2.10;99.90;;;;;;5001400;28;20048;-81
2021/12/09 10:24:07;;;;;;;13.80;6.25;;;2.70;99.90;;;;;;5001388;28;20045;-78
2021/12/09 10:26:36;;;;;;;16.35;7.00;;;2.30;99.90;;;;;;4997473;28;20405;-80
2021/12/09 10:29:15;;;;;;;11.05;6.68;;;2.00;99.90;;;;;;5000493;28;20100;-78
2021/12/09 10:31:53;;;;;;;12.40;6.97;;;2.20;99.90;;;;;;5002442;28;20569;-82
2021/12/09 10:34:36;;;;;;;14.85;6.80;;;2.20;99.90;;;;;;4996586;28;20034;-83
2021/12/09 10:37:21;;;;;;;17.98;7.32;;;2.20;99.90;;;;;;5000374;28;20062;-79
2021/12/09 10:39:51;;;;;;;67.88;40.38;;;2.30;99.90;;;;;;5006516;28;20108;-79
2021/12/09 10:42:26;;;;;;;37.10;18.30;;;2.30;99.90;;;;;;5000475;28;20042;-80
2021/12/09 10:45:16;;;;;;;13.20;6.60;;;2.40;99.90;;;;;;5003286;28;20121;-78
2021/12/09 10:47:52;;;;;;;13.30;6.82;;;2.40;99.90;;;;;;5004829;28;20521;-81
2021/12/09 10:55:54;;;;;;;10.05;7.25;;;2.50;99.90;;;;;;5003964;28;20054;-77
2021/12/09 10:58:24;;;;;;;18.17;7.95;;;4.20;99.90;;;;;;5001811;28;20046;-79
2021/12/09 11:00:56;;;;;;;21.40;8.70;;;3.60;99.90;;;;;;5001023;28;20054;-77
2021/12/09 11:03:23;;;;;;;15.65;7.57;;;2.50;99.90;;;;;;4999958;28;20057;-80
2021/12/09 11:06:13;;;;;;;21.98;7.68;;;2.50;99.90;;;;;;5002248;28;20189;-79
2021/12/09 11:08:49;;;;;;;16.70;7.55;;;2.50;99.90;;;;;;5001484;28;20054;-83
2021/12/09 11:11:16;;;;;;;15.77;7.57;;;2.40;99.90;;;;;;5005172;28;20040;-82
2021/12/09 11:13:52;;;;;;;15.02;7.90;;;2.50;99.90;;;;;;5005547;28;20046;-81
2021/12/09 11:16:56;;;;;;;15.20;7.53;;;2.50;99.90;;;;;;5000948;28;20510;-77
2021/12/09 11:19:35;;;;;;;18.75;9.18;;;2.50;99.90;;;;;;4995007;28;20050;-81
2021/12/09 11:22:04;;;;;;;17.45;7.95;;;2.60;99.90;;;;;;5003023;28;20061;-82
2021/12/09 11:24:38;;;;;;;22.08;9.95;;;2.60;99.90;;;;;;5004659;28;20041;-78
2021/12/09 11:27:07;;;;;;;20.33;10.10;;;2.50;99.90;;;;;;5002961;28;20441;-79
2021/12/09 11:29:42;;;;;;;18.80;9.90;;;2.60;99.90;;;;;;5001452;28;20046;-80
2021/12/09 11:32:13;;;;;;;21.13;10.13;;;2.50;99.90;;;;;;5003246;28;20046;-81
2021/12/09 11:34:55;;;;;;;21.05;10.48;;;1.50;99.90;;;;;;5005247;28;20107;-79
2021/12/09 11:40:10;;;;;;;23.23;10.35;;;2.40;99.90;;;;;;5002352;28;20149;-80
2021/12/09 11:42:57;;;;;;;22.90;10.27;;;2.40;99.90;;;;;;5005146;28;20038;-80
2021/12/09 11:45:26;;;;;;;21.08;10.07;;;2.50;99.90;;;;;;5000222;28;20645;-81
2021/12/09 11:47:54;;;;;;;25.27;9.88;;;3.10;99.90;;;;;;5001037;28;20096;-81
2021/12/09 11:50:23;;;;;;;23.23;10.32;;;2.50;99.90;;;;;;4999763;28;20042;-78
2021/12/09 11:52:52;;;;;;;20.55;9.93;;;2.60;99.90;;;;;;5000913;28;20483;-81
2021/12/09 11:55:21;;;;;;;21.88;10.75;;;2.40;99.90;;;;;;5002410;28;20113;-81
2021/12/09 11:57:54;;;;;;;17.50;9.38;;;2.60;99.90;;;;;;5003589;28;20457;-78
2021/12/09 12:07:19;;;;;;;23.17;10.10;;;2.60;99.90;;;;;;4992793;28;20490;-83
2021/12/09 12:13:15;;;;;;;22.67;10.07;;;2.70;99.90;;;;;;5000413;28;20050;-78
2021/12/09 12:29:33;;;;;;;21.40;9.98;;;2.80;99.90;;;;;;5001154;28;20048;-83
2021/12/09 12:40:59;;;;;;;20.00;10.63;;;2.70;99.90;;;;;;4999781;28;20050;-79
2021/12/09 12:43:26;;;;;;;26.48;10.60;;;2.70;99.90;;;;;;4998616;28;20391;-83
2021/12/09 12:46:15;;;;;;;24.15;10.70;;;2.80;99.90;;;;;;5003699;28;20041;-81
2021/12/09 12:49:11;;;;;;;21.45;10.55;;;2.80;99.90;;;;;;4999629;28;20049;-81
2021/12/09 12:51:50;;;;;;;24.13;9.82;;;2.80;99.90;;;;;;5000434;28;20046;-78
2021/12/09 12:54:32;;;;;;;21.05;10.70;;;2.90;99.90;;;;;;4999897;28;20522;-78
2021/12/09 12:57:01;;;;;;;30.67;12.15;;;2.90;99.90;;;;;;5003268;28;20061;-79
2021/12/09 12:59:33;;;;;;;24.05;12.55;;;2.80;99.90;;;;;;4997757;28;20457;-80
2021/12/09 13:02:12;;;;;;;32.67;19.55;;;2.80;99.90;;;;;;4999842;28;20073;-78
2021/12/09 13:04:57;;;;;;;29.38;13.85;;;2.90;99.90;;;;;;5000036;28;20454;-80
2021/12/09 13:10:32;;;;;;;26.60;12.73;;;3.00;99.90;;;;;;4996968;28;20060;-78
2021/12/09 13:13:07;;;;;;;23.40;12.18;;;3.00;99.90;;;;;;5000068;28;20441;-78
2021/12/09 13:15:48;;;;;;;19.55;11.60;;;3.00;99.90;;;;;;4998984;28;20046;-79
2021/12/09 13:18:42;;;;;;;21.27;11.35;;;3.00;99.90;;;;;;5000420;28;20061;-77
2021/12/09 13:21:39;;;;;;;26.55;13.07;;;3.00;99.90;;;;;;5001827;28;20041;-81
2021/12/09 13:24:43;;;;;;;26.70;12.75;;;3.00;99.90;;;;;;4999555;28;20128;-77
2021/12/09 13:27:38;;;;;;;23.05;12.55;;;3.10;99.90;;;;;;4998113;28;20077;-83
2021/12/09 13:49:59;;;;;;;20.90;11.68;;;3.10;99.90;;;;;;4998528;28;20065;-77
2021/12/09 13:54:08;;;;;;;22.67;11.90;;;3.20;99.90;;;;;;4992178;28;20080;-80
2021/12/09 13:55:24;;;;;;;24.33;11.20;;;3.20;99.90;;;;;;4998926;28;20510;-80
2021/12/09 13:57:57;;;;;;;23.85;12.30;;;3.10;99.90;;;;;;5001237;28;20107;-81
2021/12/09 14:00:26;;;;;;;20.95;11.77;;;3.20;99.90;;;;;;4999106;28;20406;-82